sensor_id;sensor_type;location;lat;lon;timestamp;temperature;humidity
5286;DHT22;2665;53.112;7.358;2023-02-13T06:35:51;6.20;99.90
5286;DHT22;2665;53.112;7.358;2023-02-13T06:38:17;6.20;99.90
5286;DHT22;2665;53.112;7.358;2023-02-13T06:40:46;6.20;99.90
5286;DHT22;2665;53.112;7.358;2023-02-13T06:43:12;6.20;99.90
5286;DHT22;2665;53.112;7.358;2023-02-13T06:45:38;6.20;99.90
5286;DHT22;2665;53.112;7.358;2023-02-13T06:48:03;6.20;85.10
5286;DHT22;2665;53.112;7.358;2023-02-13T06:50:29;6.20;99.90
5286;DHT22;2665;53.112;7.358;2023-02-13T06:52:55;6.20;99.90
5286;DHT22;2665;53.112;7.358;2023-02-13T06:55:20;6.20;99.90
5286;DHT22;2665;53.112;7.358;2023-02-13T06:57:46;6.20;99.90
5286;DHT22;2665;53.112;7.358;2023-02-13T07:00:13;6.20;99.90
5286;DHT22;2665;53.112;7.358;2023-02-13T07:02:40;6.20;99.90
5286;DHT22;2665;53.112;7.358;2023-02-13T07:05:06;6.20;99.90
5286;DHT22;2665;53.112;7.358;2023-02-13T07:07:32;6.20;99.90
5286;DHT22;2665;53.112;7.358;2023-02-13T07:09:59;6.20;1.00
5286;DHT22;2665;53.112;7.358;2023-02-13T07:12:24;6.20;1.00
5286;DHT22;2665;53.112;7.358;2023-02-13T07:14:50;6.20;99.90
5286;DHT22;2665;53.112;7.358;2023-02-13T07:17:15;6.10;99.90
5286;DHT22;2665;53.112;7.358;2023-02-13T07:19:41;6.10;99.90
5286;DHT22;2665;53.112;7.358;2023-02-13T07:22:07;6.10;1.00
5286;DHT22;2665;53.112;7.358;2023-02-13T07:24:32;6.10;99.90
5286;DHT22;2665;53.112;7.358;2023-02-13T07:27:00;6.20;99.90
5286;DHT22;2665;53.112;7.358;2023-02-13T07:29:26;6.20;99.90
5286;DHT22;2665;53.112;7.358;2023-02-13T07:31:51;6.10;99.90
5286;DHT22;2665;53.112;7.358;2023-02-13T07:34:17;6.10;99.90
5286;DHT22;2665;53.112;7.358;2023-02-13T07:36:43;6.10;1.00
5286;DHT22;2665;53.112;7.358;2023-02-13T07:39:08;6.10;1.00
5286;DHT22;2665;53.112;7.358;2023-02-13T07:41:34;6.10;1.00
5286;DHT22;2665;53.112;7.358;2023-02-13T07:43:59;6.10;1.00
5286;DHT22;2665;53.112;7.358;2023-02-13T07:46:25;6.10;1.00
5286;DHT22;2665;53.112;7.358;2023-02-13T07:48:51;6.10;1.00
5286;DHT22;2665;53.112;7.358;2023-02-13T07:51:17;6.20;1.00
5286;DHT22;2665;53.112;7.358;2023-02-13T07:53:42;6.20;1.00
5286;DHT22;2665;53.112;7.358;2023-02-13T07:56:09;6.20;1.00
5286;DHT22;2665;53.112;7.358;2023-02-13T07:58:37;6.20;1.00
5286;DHT22;2665;53.112;7.358;2023-02-13T08:01:07;6.30;1.00
5286;DHT22;2665;53.112;7.358;2023-02-13T08:03:32;6.30;1.00
5286;DHT22;2665;53.112;7.358;2023-02-13T08:05:58;6.30;1.00
5286;DHT22;2665;53.112;7.358;2023-02-13T08:08:24;6.30;1.00
5286;DHT22;2665;53.112;7.358;2023-02-13T08:10:49;6.30;1.00
5286;DHT22;2665;53.112;7.358;2023-02-13T08:13:33;6.40;1.00
5286;DHT22;2665;53.112;7.358;2023-02-13T08:15:59;6.40;90.70
5286;DHT22;2665;53.112;7.358;2023-02-13T08:18:25;6.40;49.40
5286;DHT22;2665;53.112;7.358;2023-02-13T08:20:50;6.50;1.00
5286;DHT22;2665;53.112;7.358;2023-02-13T08:23:16;6.50;96.80
5286;DHT22;2665;53.112;7.358;2023-02-13T08:25:41;6.50;99.90
5286;DHT22;2665;53.112;7.358;2023-02-13T08:28:07;6.50;99.90
5286;DHT22;2665;53.112;7.358;2023-02-13T08:30:33;6.60;99.90
5286;DHT22;2665;53.112;7.358;2023-02-13T08:32:58;6.60;99.90
5286;DHT22;2665;53.112;7.358;2023-02-13T08:35:24;6.60;99.90
5286;DHT22;2665;53.112;7.358;2023-02-13T08:37:54;6.60;99.90
5286;DHT22;2665;53.112;7.358;2023-02-13T08:40:19;6.60;99.90
5286;DHT22;2665;53.112;7.358;2023-02-13T08:42:45;6.70;99.90
5286;DHT22;2665;53.112;7.358;2023-02-13T08:45:11;6.70;99.90
5286;DHT22;2665;53.112;7.358;2023-02-13T08:47:37;6.80;99.90
5286;DHT22;2665;53.112;7.358;2023-02-13T08:50:04;6.80;99.90
5286;DHT22;2665;53.112;7.358;2023-02-13T08:52:30;6.80;99.90
5286;DHT22;2665;53.112;7.358;2023-02-13T08:54:56;6.80;99.90
5286;DHT22;2665;53.112;7.358;2023-02-13T08:57:21;6.90;99.90
5286;DHT22;2665;53.112;7.358;2023-02-13T08:59:47;6.90;1.00
5286;DHT22;2665;53.112;7.358;2023-02-13T09:02:13;6.90;1.00
5286;DHT22;2665;53.112;7.358;2023-02-13T09:04:39;6.90;1.00
5286;DHT22;2665;53.112;7.358;2023-02-13T09:07:05;6.90;1.00
5286;DHT22;2665;53.112;7.358;2023-02-13T09:09:30;7.00;1.00
5286;DHT22;2665;53.112;7.358;2023-02-13T09:11:56;7.00;99.90
5286;DHT22;2665;53.112;7.358;2023-02-13T09:14:23;7.00;99.90
5286;DHT22;2665;53.112;7.358;2023-02-13T09:16:48;7.00;1.00
5286;DHT22;2665;53.112;7.358;2023-02-13T09:19:14;7.00;99.90
5286;DHT22;2665;53.112;7.358;2023-02-13T09:21:40;7.00;99.90
5286;DHT22;2665;53.112;7.358;2023-02-13T09:24:07;7.10;99.90
5286;DHT22;2665;53.112;7.358;2023-02-13T09:26:33;7.10;99.90
5286;DHT22;2665;53.112;7.358;2023-02-13T09:28:58;7.10;1.00
5286;DHT22;2665;53.112;7.358;2023-02-13T09:31:24;7.10;1.00
5286;DHT22;2665;53.112;7.358;2023-02-13T09:33:50;7.10;1.00
5286;DHT22;2665;53.112;7.358;2023-02-13T09:36:20;7.20;1.00
5286;DHT22;2665;53.112;7.358;2023-02-13T09:38:50;7.30;99.90
5286;DHT22;2665;53.112;7.358;2023-02-13T09:41:29;7.30;1.00
5286;DHT22;2665;53.112;7.358;2023-02-13T09:46:38;7.40;99.90
5286;DHT22;2665;53.112;7.358;2023-02-13T09:49:15;7.50;1.00
5286;DHT22;2665;53.112;7.358;2023-02-13T09:51:44;7.40;99.90
5286;DHT22;2665;53.112;7.358;2023-02-13T09:54:14;7.50;99.90
5286;DHT22;2665;53.112;7.358;2023-02-13T09:57:00;7.50;99.90
5286;DHT22;2665;53.112;7.358;2023-02-13T10:02:45;7.50;45.10
5286;DHT22;2665;53.112;7.358;2023-02-13T10:14:07;7.60;1.00
5286;DHT22;2665;53.112;7.358;2023-02-13T10:16:49;7.60;1.00
5286;DHT22;2665;53.112;7.358;2023-02-13T10:19:39;7.70;1.00
5286;DHT22;2665;53.112;7.358;2023-02-13T10:25:39;7.80;1.00
5286;DHT22;2665;53.112;7.358;2023-02-13T10:28:10;7.80;99.90
5286;DHT22;2665;53.112;7.358;2023-02-13T10:30:52;7.80;99.90
5286;DHT22;2665;53.112;7.358;2023-02-13T10:33:24;7.80;94.70
5286;DHT22;2665;53.112;7.358;2023-02-13T10:38:45;7.90;97.40
5286;DHT22;2665;53.112;7.358;2023-02-13T10:47:20;8.00;1.00
5286;DHT22;2665;53.112;7.358;2023-02-13T10:57:42;8.10;1.00
5286;DHT22;2665;53.112;7.358;2023-02-13T11:01:12;8.20;1.00
5286;DHT22;2665;53.112;7.358;2023-02-13T11:03:28;8.20;1.00
5286;DHT22;2665;53.112;7.358;2023-02-13T11:05:56;8.30;1.00
5286;DHT22;2665;53.112;7.358;2023-02-13T11:08:23;8.30;1.00
5286;DHT22;2665;53.112;7.358;2023-02-13T11:10:49;8.40;1.00
5286;DHT22;2665;53.112;7.358;2023-02-13T11:13:23;8.40;1.00
5286;DHT22;2665;53.112;7.358;2023-02-13T11:16:07;8.40;1.00
5286;DHT22;2665;53.112;7.358;2023-02-13T11:18:40;8.50;99.90
5286;DHT22;2665;53.112;7.358;2023-02-13T11:21:13;8.50;99.90
5286;DHT22;2665;53.112;7.358;2023-02-13T11:23:45;8.60;38.20
5286;DHT22;2665;53.112;7.358;2023-02-13T11:26:38;8.50;99.90
5286;DHT22;2665;53.112;7.358;2023-02-13T11:29:15;8.50;99.90
5286;DHT22;2665;53.112;7.358;2023-02-13T11:31:41;8.60;1.00
5286;DHT22;2665;53.112;7.358;2023-02-13T11:34:28;8.60;99.90
5286;DHT22;2665;53.112;7.358;2023-02-13T11:39:39;8.70;1.00
5286;DHT22;2665;53.112;7.358;2023-02-13T11:42:34;8.70;99.90
5286;DHT22;2665;53.112;7.358;2023-02-13T11:49:58;8.80;99.90
5286;DHT22;2665;53.112;7.358;2023-02-13T11:52:30;8.80;1.00
5286;DHT22;2665;53.112;7.358;2023-02-13T11:58:03;8.90;1.00
5286;DHT22;2665;53.112;7.358;2023-02-13T12:00:34;8.90;99.90
5286;DHT22;2665;53.112;7.358;2023-02-13T12:05:59;8.90;99.90
5286;DHT22;2665;53.112;7.358;2023-02-13T12:08:25;8.90;99.90
5286;DHT22;2665;53.112;7.358;2023-02-13T12:10:52;9.00;99.90
5286;DHT22;2665;53.112;7.358;2023-02-13T12:13:37;9.00;99.90
5286;DHT22;2665;53.112;7.358;2023-02-13T12:16:13;9.10;99.90
5286;DHT22;2665;53.112;7.358;2023-02-13T12:18:47;9.10;99.90
5286;DHT22;2665;53.112;7.358;2023-02-13T12:24:28;9.20;99.90
5286;DHT22;2665;53.112;7.358;2023-02-13T12:32:35;9.30;99.90
5286;DHT22;2665;53.112;7.358;2023-02-13T12:38:02;9.30;99.90
5286;DHT22;2665;53.112;7.358;2023-02-13T12:40:41;9.30;99.90
5286;DHT22;2665;53.112;7.358;2023-02-13T12:45:48;9.30;15.60
5286;DHT22;2665;53.112;7.358;2023-02-13T13:02:04;9.40;99.90
5286;DHT22;2665;53.112;7.358;2023-02-13T13:15:46;9.50;8.70
5286;DHT22;2665;53.112;7.358;2023-02-13T13:23:59;9.60;1.00
5286;DHT22;2665;53.112;7.358;2023-02-13T13:26:40;9.60;1.00
5286;DHT22;2665;53.112;7.358;2023-02-13T13:29:28;9.60;1.00
5286;DHT22;2665;53.112;7.358;2023-02-13T13:32:07;9.60;1.00
5286;DHT22;2665;53.112;7.358;2023-02-13T13:34:34;9.60;1.00
5286;DHT22;2665;53.112;7.358;2023-02-13T13:40:23;9.70;1.00
5286;DHT22;2665;53.112;7.358;2023-02-13T13:43:02;9.80;1.00
5286;DHT22;2665;53.112;7.358;2023-02-13T13:45:47;9.80;1.00
5286;DHT22;2665;53.112;7.358;2023-02-13T13:48:35;9.90;1.00
5286;DHT22;2665;53.112;7.358;2023-02-13T13:51:06;9.90;1.00
5286;DHT22;2665;53.112;7.358;2023-02-13T13:53:32;10.00;1.00
5286;DHT22;2665;53.112;7.358;2023-02-13T13:56:00;10.00;1.00
5286;DHT22;2665;53.112;7.358;2023-02-13T13:58:37;10.10;1.00
5286;DHT22;2665;53.112;7.358;2023-02-13T14:01:42;10.10;1.00
5286;DHT22;2665;53.112;7.358;2023-02-13T14:11:52;10.20;1.00
5286;DHT22;2665;53.112;7.358;2023-02-13T14:16:55;10.20;1.00
5286;DHT22;2665;53.112;7.358;2023-02-13T14:19:29;10.10;1.00
5286;DHT22;2665;53.112;7.358;2023-02-13T14:25:06;10.10;1.00
5286;DHT22;2665;53.112;7.358;2023-02-13T14:27:58;10.00;1.00
5286;DHT22;2665;53.112;7.358;2023-02-13T14:30:33;10.00;99.90
5286;DHT22;2665;53.112;7.358;2023-02-13T14:33:03;9.90;99.90
5286;DHT22;2665;53.112;7.358;2023-02-13T14:35:32;9.90;99.90
5286;DHT22;2665;53.112;7.358;2023-02-13T14:38:02;9.90;1.00
5286;DHT22;2665;53.112;7.358;2023-02-13T14:43:16;9.80;1.00
5286;DHT22;2665;53.112;7.358;2023-02-13T14:49:28;9.90;1.00
5286;DHT22;2665;53.112;7.358;2023-02-13T14:51:52;9.80;1.00
5286;DHT22;2665;53.112;7.358;2023-02-13T14:54:34;9.80;1.00
5286;DHT22;2665;53.112;7.358;2023-02-13T14:57:25;9.80;1.00
5286;DHT22;2665;53.112;7.358;2023-02-13T15:00:07;9.80;1.00
5286;DHT22;2665;53.112;7.358;2023-02-13T15:02:41;9.80;1.00
5286;DHT22;2665;53.112;7.358;2023-02-13T15:05:14;9.70;1.00
5286;DHT22;2665;53.112;7.358;2023-02-13T15:07:50;9.70;1.00
5286;DHT22;2665;53.112;7.358;2023-02-13T15:10:33;9.70;1.00
5286;DHT22;2665;53.112;7.358;2023-02-13T15:13:01;9.60;1.00
5286;DHT22;2665;53.112;7.358;2023-02-13T15:15:30;9.60;1.00
5286;DHT22;2665;53.112;7.358;2023-02-13T15:18:08;9.60;1.00
5286;DHT22;2665;53.112;7.358;2023-02-13T15:20:37;9.50;1.00
5286;DHT22;2665;53.112;7.358;2023-02-13T15:23:04;9.50;1.00
5286;DHT22;2665;53.112;7.358;2023-02-13T15:25:38;9.50;1.00
5286;DHT22;2665;53.112;7.358;2023-02-13T15:28:18;9.40;1.00
5286;DHT22;2665;53.112;7.358;2023-02-13T15:30:57;9.40;1.00
5286;DHT22;2665;53.112;7.358;2023-02-13T15:33:25;9.40;1.00
5286;DHT22;2665;53.112;7.358;2023-02-13T15:36:00;9.30;1.00
5286;DHT22;2665;53.112;7.358;2023-02-13T15:38:29;9.30;1.00
5286;DHT22;2665;53.112;7.358;2023-02-13T15:41:03;9.30;1.00
5286;DHT22;2665;53.112;7.358;2023-02-13T15:43:33;9.20;1.00
5286;DHT22;2665;53.112;7.358;2023-02-13T15:46:04;9.20;1.00
5286;DHT22;2665;53.112;7.358;2023-02-13T15:48:32;9.20;1.00
5286;DHT22;2665;53.112;7.358;2023-02-13T15:50:59;9.10;1.00
5286;DHT22;2665;53.112;7.358;2023-02-13T15:53:25;9.10;1.00
5286;DHT22;2665;53.112;7.358;2023-02-13T15:56:00;9.10;1.00
5286;DHT22;2665;53.112;7.358;2023-02-13T15:58:35;9.00;1.00
5286;DHT22;2665;53.112;7.358;2023-02-13T16:01:06;9.00;1.00
5286;DHT22;2665;53.112;7.358;2023-02-13T16:03:33;8.90;1.00
5286;DHT22;2665;53.112;7.358;2023-02-13T16:05:59;8.90;1.00
5286;DHT22;2665;53.112;7.358;2023-02-13T16:14:17;8.80;4.10
5286;DHT22;2665;53.112;7.358;2023-02-13T16:16:58;8.80;18.90
5286;DHT22;2665;53.112;7.358;2023-02-13T16:27:55;8.70;99.90
5286;DHT22;2665;53.112;7.358;2023-02-13T16:30:23;8.60;99.90
5286;DHT22;2665;53.112;7.358;2023-02-13T16:32:49;8.50;99.90
5286;DHT22;2665;53.112;7.358;2023-02-13T16:35:38;8.50;99.90
5286;DHT22;2665;53.112;7.358;2023-02-13T16:38:04;8.40;99.90
5286;DHT22;2665;53.112;7.358;2023-02-13T16:40:43;8.40;99.90
5286;DHT22;2665;53.112;7.358;2023-02-13T16:56:44;8.00;99.90
5286;DHT22;2665;53.112;7.358;2023-02-13T17:02:09;7.70;99.90
5286;DHT22;2665;53.112;7.358;2023-02-13T17:04:37;7.60;99.90
5286;DHT22;2665;53.112;7.358;2023-02-13T17:07:04;7.40;99.90
5286;DHT22;2665;53.112;7.358;2023-02-13T17:09:30;7.30;99.90
5286;DHT22;2665;53.112;7.358;2023-02-13T17:11:55;7.10;99.90
5286;DHT22;2665;53.112;7.358;2023-02-13T17:14:21;7.00;1.00
5286;DHT22;2665;53.112;7.358;2023-02-13T17:16:47;6.90;1.00
5286;DHT22;2665;53.112;7.358;2023-02-13T17:19:13;6.80;1.00
5286;DHT22;2665;53.112;7.358;2023-02-13T17:21:39;6.70;1.00
5286;DHT22;2665;53.112;7.358;2023-02-13T17:24:06;6.50;1.00
5286;DHT22;2665;53.112;7.358;2023-02-13T17:26:33;6.40;1.00
5286;DHT22;2665;53.112;7.358;2023-02-13T17:28:58;6.30;1.00
5286;DHT22;2665;53.112;7.358;2023-02-13T17:31:24;6.30;12.00
5286;DHT22;2665;53.112;7.358;2023-02-13T17:33:49;6.20;56.60
5286;DHT22;2665;53.112;7.358;2023-02-13T17:36:15;6.10;90.10
5286;DHT22;2665;53.112;7.358;2023-02-13T17:38:40;6.00;99.90
5286;DHT22;2665;53.112;7.358;2023-02-13T17:41:13;5.90;99.90
5286;DHT22;2665;53.112;7.358;2023-02-13T17:43:41;5.90;99.90
5286;DHT22;2665;53.112;7.358;2023-02-13T17:46:06;5.80;99.90
5286;DHT22;2665;53.112;7.358;2023-02-13T17:48:32;5.70;99.90
5286;DHT22;2665;53.112;7.358;2023-02-13T17:50:58;5.60;1.00
5286;DHT22;2665;53.112;7.358;2023-02-13T17:53:26;5.60;1.00
5286;DHT22;2665;53.112;7.358;2023-02-13T17:55:54;5.50;1.00
5286;DHT22;2665;53.112;7.358;2023-02-13T17:58:20;5.50;1.00
5286;DHT22;2665;53.112;7.358;2023-02-13T18:00:46;5.40;1.00
5286;DHT22;2665;53.112;7.358;2023-02-13T18:03:12;5.40;1.00
5286;DHT22;2665;53.112;7.358;2023-02-13T18:05:38;5.30;1.00
5286;DHT22;2665;53.112;7.358;2023-02-13T18:08:04;5.30;1.00
5286;DHT22;2665;53.112;7.358;2023-02-13T18:10:31;5.20;1.00
5286;DHT22;2665;53.112;7.358;2023-02-13T18:12:57;5.20;28.00
5286;DHT22;2665;53.112;7.358;2023-02-13T18:15:29;5.20;72.50
5286;DHT22;2665;53.112;7.358;2023-02-13T18:17:55;5.10;99.90
5286;DHT22;2665;53.112;7.358;2023-02-13T18:20:21;5.10;99.90
5286;DHT22;2665;53.112;7.358;2023-02-13T18:22:47;5.10;99.90
5286;DHT22;2665;53.112;7.358;2023-02-13T18:25:15;5.00;1.00
5286;DHT22;2665;53.112;7.358;2023-02-13T18:27:41;5.00;1.00
5286;DHT22;2665;53.112;7.358;2023-02-13T18:30:08;5.00;1.00
5286;DHT22;2665;53.112;7.358;2023-02-13T18:32:34;4.90;1.30
5286;DHT22;2665;53.112;7.358;2023-02-13T18:35:00;5.00;24.40
5286;DHT22;2665;53.112;7.358;2023-02-13T18:37:26;4.90;18.50
5286;DHT22;2665;53.112;7.358;2023-02-13T18:39:57;4.90;99.90
5286;DHT22;2665;53.112;7.358;2023-02-13T18:42:23;4.80;1.50
5286;DHT22;2665;53.112;7.358;2023-02-13T18:44:49;4.80;99.90
5286;DHT22;2665;53.112;7.358;2023-02-13T18:47:14;4.80;99.90
5286;DHT22;2665;53.112;7.358;2023-02-13T18:49:41;4.80;99.90
5286;DHT22;2665;53.112;7.358;2023-02-13T18:52:06;4.80;1.00
5286;DHT22;2665;53.112;7.358;2023-02-13T18:54:32;4.80;1.00
5286;DHT22;2665;53.112;7.358;2023-02-13T18:56:58;4.80;95.30
5286;DHT22;2665;53.112;7.358;2023-02-13T18:59:23;4.80;99.90
5286;DHT22;2665;53.112;7.358;2023-02-13T19:01:49;4.80;99.90
5286;DHT22;2665;53.112;7.358;2023-02-13T19:04:15;4.80;99.90
5286;DHT22;2665;53.112;7.358;2023-02-13T19:06:42;4.80;99.90
5286;DHT22;2665;53.112;7.358;2023-02-13T19:09:08;4.70;99.90
5286;DHT22;2665;53.112;7.358;2023-02-13T19:11:35;4.70;99.90
5286;DHT22;2665;53.112;7.358;2023-02-13T19:14:03;4.70;99.90
5286;DHT22;2665;53.112;7.358;2023-02-13T19:16:29;4.60;99.90
5286;DHT22;2665;53.112;7.358;2023-02-13T19:18:58;4.60;99.90
5286;DHT22;2665;53.112;7.358;2023-02-13T19:21:25;4.60;1.00
5286;DHT22;2665;53.112;7.358;2023-02-13T19:23:51;4.60;1.00
5286;DHT22;2665;53.112;7.358;2023-02-13T19:26:22;4.60;1.00
5286;DHT22;2665;53.112;7.358;2023-02-13T19:28:48;4.50;1.00
5286;DHT22;2665;53.112;7.358;2023-02-13T19:31:16;4.50;34.20
5286;DHT22;2665;53.112;7.358;2023-02-13T19:33:43;4.50;99.90
5286;DHT22;2665;53.112;7.358;2023-02-13T19:36:11;4.50;99.90
5286;DHT22;2665;53.112;7.358;2023-02-13T19:38:38;4.50;99.90
5286;DHT22;2665;53.112;7.358;2023-02-13T19:41:06;4.50;99.90
5286;DHT22;2665;53.112;7.358;2023-02-13T19:43:32;4.50;99.90
5286;DHT22;2665;53.112;7.358;2023-02-13T19:46:02;4.50;99.90
5286;DHT22;2665;53.112;7.358;2023-02-13T19:48:37;4.40;99.90
5286;DHT22;2665;53.112;7.358;2023-02-13T19:51:07;4.50;99.90
5286;DHT22;2665;53.112;7.358;2023-02-13T19:53:33;4.50;99.90
5286;DHT22;2665;53.112;7.358;2023-02-13T19:55:59;4.40;99.90
5286;DHT22;2665;53.112;7.358;2023-02-13T19:58:25;4.40;99.90
5286;DHT22;2665;53.112;7.358;2023-02-13T20:00:51;4.40;1.00
5286;DHT22;2665;53.112;7.358;2023-02-13T20:03:17;4.40;77.20
5286;DHT22;2665;53.112;7.358;2023-02-13T20:05:42;4.40;99.90
5286;DHT22;2665;53.112;7.358;2023-02-13T20:08:09;4.40;99.90
5286;DHT22;2665;53.112;7.358;2023-02-13T20:10:34;4.40;99.90
5286;DHT22;2665;53.112;7.358;2023-02-13T20:13:00;4.40;99.90
5286;DHT22;2665;53.112;7.358;2023-02-13T20:15:27;4.40;1.00
5286;DHT22;2665;53.112;7.358;2023-02-13T20:17:53;4.40;1.00
5286;DHT22;2665;53.112;7.358;2023-02-13T20:20:19;4.40;99.90
5286;DHT22;2665;53.112;7.358;2023-02-13T20:22:46;4.30;99.90
5286;DHT22;2665;53.112;7.358;2023-02-13T20:25:13;4.30;1.00
5286;DHT22;2665;53.112;7.358;2023-02-13T20:27:38;4.30;99.90
5286;DHT22;2665;53.112;7.358;2023-02-13T20:30:07;4.20;99.90
5286;DHT22;2665;53.112;7.358;2023-02-13T20:32:33;4.20;99.90
5286;DHT22;2665;53.112;7.358;2023-02-13T20:34:59;4.20;56.90
5286;DHT22;2665;53.112;7.358;2023-02-13T20:37:24;4.10;1.00
5286;DHT22;2665;53.112;7.358;2023-02-13T20:39:50;4.00;99.90
